createdAt,value
2019-03-18T00:03:02.675Z,3.81
2019-03-18T00:08:04.192Z,3.89
2019-03-18T00:13:05.800Z,4.00
2019-03-18T00:18:07.344Z,4.11
2019-03-18T00:23:08.825Z,4.12
2019-03-18T00:28:10.364Z,4.21
2019-03-18T00:33:11.900Z,4.36
2019-03-18T00:38:13.526Z,4.45
2019-03-18T00:43:15.167Z,4.47
2019-03-18T00:48:17.096Z,4.47
2019-03-18T00:53:18.619Z,4.55
2019-03-18T00:58:20.156Z,4.56
2019-03-18T01:03:21.672Z,4.61
2019-03-18T01:08:23.223Z,4.57
2019-03-18T01:13:25.101Z,4.58
2019-03-18T01:18:26.588Z,4.64
2019-03-18T01:23:28.131Z,4.72
2019-03-18T01:28:29.737Z,4.78
2019-03-18T01:33:31.558Z,4.88
2019-03-18T01:38:33.765Z,4.94
2019-03-18T01:43:35.615Z,5.02
2019-03-18T01:48:37.125Z,5.07
2019-03-18T01:53:38.651Z,5.07
2019-03-18T01:58:40.596Z,5.08
2019-03-18T02:03:42.559Z,5.08
2019-03-18T02:08:46.690Z,5.17
2019-03-18T02:13:49.097Z,5.20
2019-03-18T02:18:50.662Z,5.13
2019-03-18T02:23:52.242Z,4.97
2019-03-18T02:28:53.808Z,4.86
2019-03-18T02:33:55.398Z,4.77
2019-03-18T02:38:57.299Z,4.67
2019-03-18T02:43:58.839Z,4.64
2019-03-18T02:49:00.394Z,4.64
2019-03-18T02:54:01.922Z,4.58
2019-03-18T02:59:03.449Z,4.60
2019-03-18T03:04:04.940Z,4.76
2019-03-18T03:09:06.458Z,4.90
2019-03-18T03:14:07.960Z,4.96
2019-03-18T03:19:09.522Z,4.93
2019-03-18T03:24:11.156Z,4.77
2019-03-18T03:29:13.077Z,4.59
2019-03-18T03:34:14.761Z,4.49
2019-03-18T03:39:16.293Z,4.42
2019-03-18T03:44:17.870Z,4.37
2019-03-18T03:49:19.403Z,4.33
2019-03-18T03:54:20.946Z,4.25
2019-03-18T03:59:22.647Z,4.24
2019-03-18T04:04:24.180Z,4.24
2019-03-18T04:09:25.712Z,4.25
2019-03-18T04:14:27.231Z,4.30
2019-03-18T04:19:28.804Z,4.34
2019-03-18T04:24:30.302Z,4.24
2019-03-18T04:29:31.952Z,4.30
2019-03-18T04:34:33.488Z,4.40
2019-03-18T04:39:35.038Z,4.36
2019-03-18T04:44:36.594Z,4.30
2019-03-18T04:49:38.137Z,4.37
2019-03-18T04:54:39.647Z,4.41
2019-03-18T04:59:41.157Z,4.46
2019-03-18T05:04:42.704Z,4.44
2019-03-18T05:09:44.266Z,4.41
2019-03-18T05:14:45.806Z,4.22
2019-03-18T05:19:47.419Z,4.17
2019-03-18T05:24:49.033Z,4.14
2019-03-18T05:29:50.557Z,4.07
2019-03-18T05:34:52.085Z,4.00
2019-03-18T05:39:53.629Z,3.92
2019-03-18T05:44:55.155Z,3.91
2019-03-18T05:49:56.713Z,3.94
2019-03-18T05:54:58.271Z,4.14
2019-03-18T05:59:59.792Z,4.33
2019-03-18T06:05:01.349Z,4.47
2019-03-18T06:10:03.369Z,4.50
2019-03-18T06:15:05.796Z,4.69
2019-03-18T06:20:07.386Z,4.61
2019-03-18T06:25:09.287Z,4.82
2019-03-18T06:30:10.849Z,4.95
2019-03-18T06:35:12.815Z,4.99
2019-03-18T06:40:14.317Z,5.15
2019-03-18T06:45:15.911Z,5.14
2019-03-18T06:50:17.442Z,4.90
2019-03-18T06:55:19.102Z,4.71
2019-03-18T07:00:20.793Z,4.61
2019-03-18T07:05:22.419Z,4.63
2019-03-18T07:10:23.976Z,4.60
2019-03-18T07:15:25.591Z,4.64
2019-03-18T07:20:27.529Z,4.72
2019-03-18T07:25:29.123Z,4.91
2019-03-18T07:30:31.373Z,5.70
2019-03-18T07:35:32.944Z,5.34
2019-03-18T07:40:34.517Z,4.96
2019-03-18T07:45:36.170Z,4.89
2019-03-18T07:50:37.732Z,5.03
2019-03-18T07:55:39.302Z,5.15
2019-03-18T08:00:41.225Z,5.45
2019-03-18T08:05:42.739Z,5.70
2019-03-18T08:10:44.593Z,5.58
2019-03-18T08:15:46.120Z,5.41
2019-03-18T08:20:48.171Z,5.32
2019-03-18T08:25:49.677Z,5.33
2019-03-18T08:30:51.210Z,5.44
2019-03-18T08:35:52.719Z,5.56
2019-03-18T08:40:54.246Z,5.72
2019-03-18T08:45:55.804Z,6.22
2019-03-18T08:50:57.311Z,7.05
2019-03-18T08:55:58.836Z,7.36
2019-03-18T09:01:00.321Z,7.42
2019-03-18T09:06:01.942Z,7.06
2019-03-18T09:11:03.443Z,7.20
2019-03-18T09:16:05.333Z,7.49
2019-03-18T09:21:07.202Z,7.75
2019-03-18T09:26:08.797Z,8.24
2019-03-18T09:31:10.676Z,8.08
2019-03-18T09:36:12.199Z,8.47
2019-03-18T09:41:13.757Z,8.92
2019-03-18T09:46:15.291Z,8.99
2019-03-18T09:51:16.835Z,8.85
2019-03-18T09:56:18.369Z,8.43
2019-03-18T10:01:19.896Z,8.57
2019-03-18T10:06:22.008Z,9.07
2019-03-18T10:11:23.589Z,8.80
2019-03-18T10:16:25.090Z,8.80
2019-03-18T10:21:26.594Z,8.73
2019-03-18T10:26:28.174Z,8.91
2019-03-18T10:31:31.083Z,8.92
2019-03-18T10:36:32.592Z,8.35
2019-03-18T10:41:34.216Z,7.94
2019-03-18T10:46:36.218Z,8.55
2019-03-18T10:51:37.727Z,9.05
2019-03-18T10:56:41.275Z,9.97
2019-03-18T11:01:42.812Z,10.06
2019-03-18T11:06:44.335Z,9.84
2019-03-18T11:11:45.859Z,9.87
2019-03-18T11:16:47.355Z,9.64
2019-03-18T11:21:48.894Z,9.27
2019-03-18T11:26:50.402Z,9.59
2019-03-18T11:31:51.938Z,9.35
2019-03-18T11:36:53.437Z,9.74
2019-03-18T11:41:54.950Z,9.46
2019-03-18T11:46:56.546Z,9.24
2019-03-18T11:51:58.511Z,9.19
2019-03-18T11:57:00.106Z,8.81
2019-03-18T12:02:02.028Z,8.43
2019-03-18T12:07:03.643Z,8.38
2019-03-18T12:12:05.154Z,8.70
2019-03-18T12:17:06.670Z,9.05
2019-03-18T12:22:08.176Z,9.20
2019-03-18T12:27:09.784Z,9.69
2019-03-18T12:32:11.422Z,10.15
2019-03-18T12:37:12.958Z,9.88
2019-03-18T12:42:14.893Z,9.75
2019-03-18T12:47:16.736Z,9.42
2019-03-18T12:52:18.457Z,9.30
2019-03-18T12:57:20.069Z,9.42
2019-03-18T13:02:21.578Z,9.95
2019-03-18T13:07:23.397Z,10.63
2019-03-18T13:12:24.876Z,10.98
2019-03-18T13:17:26.870Z,10.96
2019-03-18T13:22:28.513Z,10.49
2019-03-18T13:27:30.301Z,10.47
2019-03-18T13:32:31.838Z,10.61
2019-03-18T13:37:33.379Z,10.30
2019-03-18T13:42:34.886Z,10.10
2019-03-18T13:47:36.446Z,10.86
2019-03-18T13:52:38.067Z,10.52
2019-03-18T13:57:39.686Z,10.30
2019-03-18T14:02:41.385Z,10.58
2019-03-18T14:07:43.014Z,10.43
2019-03-18T14:12:44.563Z,10.21
2019-03-18T14:17:46.180Z,10.18
2019-03-18T14:22:47.751Z,9.40
2019-03-18T14:27:49.351Z,9.23
2019-03-18T14:32:50.865Z,8.95
2019-03-18T14:37:52.804Z,8.62
2019-03-18T14:42:54.427Z,8.75
2019-03-18T14:47:55.931Z,8.87
2019-03-18T14:52:57.482Z,9.14
2019-03-18T14:57:59.042Z,9.47
2019-03-18T15:03:01.675Z,9.56
2019-03-18T15:08:03.266Z,9.38
2019-03-18T15:13:05.098Z,8.81
2019-03-18T15:18:06.741Z,8.99
2019-03-18T15:23:08.272Z,9.72
2019-03-18T15:28:09.924Z,10.21
2019-03-18T15:33:12.600Z,10.18
2019-03-18T15:38:14.124Z,10.14
2019-03-18T15:43:16.443Z,9.91
2019-03-18T15:48:18.079Z,9.52
2019-03-18T15:53:19.693Z,9.43
2019-03-18T15:58:21.339Z,9.99
2019-03-18T16:03:23.990Z,10.23
2019-03-18T16:08:25.773Z,9.95
2019-03-18T16:13:27.673Z,10.16
2019-03-18T16:18:29.282Z,10.38
2019-03-18T16:23:30.956Z,10.62
2019-03-18T16:28:32.620Z,10.56
2019-03-18T16:33:34.255Z,10.67
2019-03-18T16:38:35.814Z,10.65
2019-03-18T16:43:37.321Z,10.21
2019-03-18T16:48:38.943Z,10.38
2019-03-18T16:53:40.455Z,10.08
2019-03-18T16:58:44.118Z,9.74
2019-03-18T17:03:45.963Z,9.99
2019-03-18T17:08:47.474Z,9.92
2019-03-18T17:13:49.005Z,9.54
2019-03-18T17:18:51.027Z,9.03
2019-03-18T17:23:52.900Z,8.60
2019-03-18T17:28:54.416Z,8.52
2019-03-18T17:33:56.134Z,8.38
2019-03-18T17:38:57.698Z,8.18
2019-03-18T17:43:59.222Z,7.98
2019-03-18T17:49:00.875Z,7.76
2019-03-18T17:54:02.371Z,7.61
2019-03-18T17:59:03.924Z,7.32
2019-03-18T18:04:05.529Z,7.19
2019-03-18T18:09:07.202Z,7.20
2019-03-18T18:14:09.236Z,7.03
2019-03-18T18:19:11.204Z,6.86
2019-03-18T18:24:12.844Z,6.70
2019-03-18T18:29:14.721Z,6.59
2019-03-18T18:34:16.570Z,6.47
2019-03-18T18:39:18.547Z,6.37
2019-03-18T18:44:20.062Z,6.29
2019-03-18T18:49:21.672Z,6.21
2019-03-18T18:54:23.317Z,6.13
2019-03-18T18:59:24.875Z,6.06
2019-03-18T19:04:26.587Z,5.94
2019-03-18T19:09:28.112Z,5.86
2019-03-18T19:14:29.668Z,5.74
2019-03-18T19:19:32.329Z,5.67
2019-03-18T19:24:34.020Z,5.51
2019-03-18T19:29:36.774Z,5.37
2019-03-18T19:34:38.355Z,5.30
2019-03-18T19:39:40.011Z,5.22
2019-03-18T19:44:41.657Z,5.14
2019-03-18T19:49:43.598Z,5.05
2019-03-18T19:54:46.217Z,4.99
2019-03-18T19:59:47.870Z,4.92
2019-03-18T20:04:49.666Z,4.86
2019-03-18T20:09:51.394Z,4.77
2019-03-18T20:14:53.123Z,4.71
2019-03-18T20:19:54.879Z,4.64
2019-03-18T20:24:56.516Z,4.59
2019-03-18T20:29:58.543Z,4.53
2019-03-18T20:35:00.531Z,4.48
2019-03-18T20:40:02.156Z,4.42
2019-03-18T20:45:04.628Z,4.36
2019-03-18T20:50:08.076Z,4.30
2019-03-18T20:55:09.757Z,4.23
2019-03-18T21:00:12.747Z,4.15
2019-03-18T21:05:14.334Z,4.01
2019-03-18T21:10:15.970Z,3.88
2019-03-18T21:15:17.660Z,3.83
2019-03-18T21:20:19.202Z,3.86
2019-03-18T21:25:20.834Z,3.80
2019-03-18T21:30:22.502Z,3.70
2019-03-18T21:35:24.069Z,3.64
2019-03-18T21:40:26.181Z,3.57
2019-03-18T21:45:27.736Z,3.46
2019-03-18T21:50:29.408Z,3.38
2019-03-18T21:55:31.031Z,3.30
2019-03-18T22:00:32.669Z,3.24
2019-03-18T22:05:34.199Z,3.16
2019-03-18T22:10:35.992Z,3.09
2019-03-18T22:15:37.925Z,3.02
2019-03-18T22:20:39.598Z,2.95
2019-03-18T22:25:41.136Z,2.89
2019-03-18T22:30:42.876Z,2.81
2019-03-18T22:35:44.845Z,2.73
2019-03-18T22:40:46.447Z,2.69
2019-03-18T22:45:48.033Z,2.63
2019-03-18T22:50:49.781Z,2.57
2019-03-18T22:55:51.366Z,2.53
2019-03-18T23:00:52.990Z,2.61
2019-03-18T23:05:54.621Z,2.66
2019-03-18T23:10:56.599Z,2.62
2019-03-18T23:15:58.163Z,2.57
2019-03-18T23:21:00.152Z,2.52
2019-03-18T23:26:01.704Z,2.46
2019-03-18T23:31:03.275Z,2.54
2019-03-18T23:36:04.900Z,2.72
2019-03-18T23:41:06.878Z,2.77
2019-03-18T23:46:08.498Z,2.71
2019-03-18T23:51:10.082Z,2.68
2019-03-18T23:56:11.658Z,2.64
